createdAt,value
2023-01-28T00:00:49.668Z,103160.13
2023-01-28T00:03:19.208Z,103160.13
2023-01-28T00:05:46.813Z,103160.13
2023-01-28T00:08:14.391Z,103160.13
2023-01-28T00:10:42.769Z,103155.75
2023-01-28T00:13:12.859Z,103152.25
2023-01-28T00:15:39.682Z,103151.34
2023-01-28T00:18:06.417Z,103167.13
2023-01-28T00:20:33.639Z,103155.75
2023-01-28T00:23:00.391Z,103165.41
2023-01-28T00:25:27.493Z,103164.50
2023-01-28T00:27:55.645Z,103162.75
2023-01-28T00:30:22.431Z,103161.03
2023-01-28T00:32:49.368Z,103172.41
2023-01-28T00:35:16.293Z,103169.78
2023-01-28T00:37:45.897Z,103167.13
2023-01-28T00:40:13.371Z,103156.63
2023-01-28T00:42:40.360Z,103158.38
2023-01-28T00:45:09.414Z,103155.75
2023-01-28T00:47:36.250Z,103154.88
2023-01-28T00:50:03.304Z,103146.09
2023-01-28T00:52:31.102Z,103153.13
2023-01-28T00:54:57.792Z,103157.50
2023-01-28T00:57:26.069Z,103152.25
2023-01-28T00:59:52.884Z,103152.25
2023-01-28T01:02:23.353Z,103147.00
2023-01-28T01:04:50.488Z,103146.13
2023-01-28T01:07:17.728Z,103133.84
2023-01-28T01:09:46.400Z,103127.75
2023-01-28T01:12:13.187Z,103134.72
2023-01-28T01:14:40.069Z,103138.28
2023-01-28T01:17:07.821Z,103136.50
2023-01-28T01:19:37.381Z,103141.75
2023-01-28T01:22:04.154Z,103142.66
2023-01-28T01:24:32.118Z,103156.63
2023-01-28T01:26:59.113Z,103153.16
2023-01-28T01:29:27.962Z,103153.16
2023-01-28T01:31:54.748Z,103156.66
2023-01-28T01:34:22.366Z,103151.38
2023-01-28T01:36:54.453Z,103129.50
2023-01-28T01:39:21.557Z,103150.50
2023-01-28T01:41:48.388Z,103148.78
2023-01-28T01:44:54.448Z,103152.25
2023-01-28T01:47:24.734Z,103155.75
2023-01-28T01:49:51.596Z,103160.16
2023-01-28T01:52:24.095Z,103157.53
2023-01-28T01:54:55.453Z,103152.28
2023-01-28T01:57:26.979Z,103161.91
2023-01-28T01:59:54.739Z,103163.66
2023-01-28T02:02:22.242Z,103161.91
2023-01-28T02:04:49.078Z,103155.75
2023-01-28T02:07:20.740Z,103166.28
2023-01-28T02:09:47.525Z,103162.78
2023-01-28T02:12:17.852Z,103162.75
2023-01-28T02:14:47.941Z,103158.41
2023-01-28T02:17:15.528Z,103154.88
2023-01-28T02:19:48.101Z,103158.41
2023-01-28T02:22:47.900Z,103158.41
2023-01-28T02:25:58.160Z,103165.41
2023-01-28T02:28:34.513Z,103161.91
2023-01-28T02:31:09.218Z,103161.03
2023-01-28T02:33:43.949Z,103164.53
2023-01-28T02:36:19.197Z,103167.16
2023-01-28T02:38:50.235Z,103161.91
2023-01-28T02:41:26.012Z,103166.25
2023-01-28T02:43:54.809Z,103162.78
2023-01-28T02:46:35.155Z,103168.03
2023-01-28T02:49:05.350Z,103168.03
2023-01-28T02:51:43.182Z,103160.16
2023-01-28T02:54:14.534Z,103165.41
2023-01-28T02:56:48.671Z,103175.91
2023-01-28T02:59:24.533Z,103162.78
2023-01-28T03:01:57.828Z,103158.41
2023-01-28T03:04:29.734Z,103158.41
2023-01-28T03:07:02.125Z,103158.41
2023-01-28T03:09:29.150Z,103152.25
2023-01-28T03:12:00.469Z,103166.28
2023-01-28T03:14:32.688Z,103168.91
2023-01-28T03:17:01.178Z,103166.28
2023-01-28T03:19:27.962Z,103162.75
2023-01-28T03:21:56.219Z,103158.41
2023-01-28T03:24:27.824Z,103168.91
2023-01-28T03:26:58.322Z,103174.13
2023-01-28T03:29:27.375Z,103177.63
2023-01-28T03:31:57.631Z,103188.16
2023-01-28T03:34:24.537Z,103187.25
2023-01-28T03:36:52.369Z,103177.63
2023-01-28T03:39:45.287Z,103184.66
2023-01-28T03:42:14.779Z,103180.25
2023-01-28T03:45:02.608Z,103179.41
2023-01-28T03:47:32.331Z,103173.28
2023-01-28T03:50:01.812Z,103168.91
2023-01-28T03:52:33.623Z,103163.66
2023-01-28T03:55:16.076Z,103168.91
2023-01-28T03:57:44.227Z,103167.13
2023-01-28T04:00:13.569Z,103167.16
2023-01-28T04:02:44.683Z,103164.53
2023-01-28T04:05:15.655Z,103170.63
2023-01-28T04:07:46.409Z,103165.38
2023-01-28T04:10:27.466Z,103159.25
2023-01-28T04:13:04.985Z,103161.88
2023-01-28T04:15:32.048Z,103165.38
2023-01-28T04:18:00.145Z,103161.88
2023-01-28T04:20:29.649Z,103161.88
2023-01-28T04:22:59.606Z,103153.13
2023-01-28T04:25:26.337Z,103152.25
2023-01-28T04:27:53.759Z,103167.13
2023-01-28T04:30:23.182Z,103164.50
2023-01-28T04:33:14.675Z,103179.34
2023-01-28T04:35:55.717Z,103177.63
2023-01-28T04:38:41.440Z,103170.63
2023-01-28T04:41:28.174Z,103178.50
2023-01-28T04:43:59.254Z,103170.63
2023-01-28T04:46:33.699Z,103180.25
2023-01-28T04:49:04.371Z,103174.13
2023-01-28T04:51:41.738Z,103175.88
2023-01-28T04:54:17.496Z,103165.38
2023-01-28T04:56:44.348Z,103161.00
2023-01-28T04:59:11.253Z,103161.00
2023-01-28T05:01:38.934Z,103169.75
2023-01-28T05:04:08.002Z,103173.25
2023-01-28T05:06:37.541Z,103182.00
2023-01-28T05:09:09.348Z,103180.25
2023-01-28T05:11:38.901Z,103173.22
2023-01-28T05:19:46.276Z,103175.88
2023-01-28T05:22:19.397Z,103176.75
2023-01-28T05:24:59.628Z,103180.25
2023-01-28T05:27:26.616Z,103168.00
2023-01-28T05:29:53.670Z,103168.00
2023-01-28T05:32:20.547Z,103161.88
2023-01-28T05:34:49.471Z,103165.38
2023-01-28T05:37:16.480Z,103174.97
2023-01-28T05:39:46.425Z,103178.50
2023-01-28T05:42:13.564Z,103173.22
2023-01-28T05:44:45.314Z,103171.47
2023-01-28T05:47:16.466Z,103184.59
2023-01-28T05:49:53.388Z,103181.97
2023-01-28T05:52:43.461Z,103174.97
2023-01-28T05:55:20.855Z,103172.31
2023-01-28T05:57:48.368Z,103164.47
2023-01-28T06:00:19.174Z,103167.09
2023-01-28T06:02:46.556Z,103171.47
2023-01-28T06:05:17.900Z,103159.22
2023-01-28T06:07:45.270Z,103174.09
2023-01-28T06:10:17.252Z,103168.84
2023-01-28T06:12:44.348Z,103163.59
2023-01-28T06:15:29.847Z,103168.84
2023-01-28T06:20:44.729Z,103163.56
2023-01-28T06:23:12.310Z,103159.19
2023-01-28T06:25:39.104Z,103167.03
2023-01-28T06:28:10.758Z,103150.41
2023-01-28T06:30:37.831Z,103167.03
2023-01-28T06:33:04.569Z,103166.13
2023-01-28T06:35:31.426Z,103160.91
2023-01-28T06:37:59.549Z,103170.50
2023-01-28T06:40:26.261Z,103173.13
2023-01-28T06:42:56.824Z,103174.03
2023-01-28T06:45:24.080Z,103163.53
2023-01-28T06:47:51.137Z,103166.16
2023-01-28T06:50:18.356Z,103167.88
2023-01-28T06:52:45.585Z,103171.41
2023-01-28T06:55:13.837Z,103180.97
2023-01-28T06:57:41.523Z,103175.69
2023-01-28T07:00:12.421Z,103174.75
2023-01-28T07:02:41.367Z,103188.66
2023-01-28T07:07:50.465Z,103192.91
2023-01-28T07:12:59.905Z,103192.03
2023-01-28T07:18:08.488Z,103197.28
2023-01-28T07:20:35.438Z,103197.31
2023-01-28T07:23:02.343Z,103194.66
2023-01-28T07:25:32.542Z,103195.53
2023-01-28T07:27:59.231Z,103196.34
2023-01-28T07:30:26.468Z,103196.25
2023-01-28T07:32:54.517Z,103195.41
2023-01-28T07:35:21.387Z,103196.28
2023-01-28T07:37:51.705Z,103192.72
2023-01-28T07:40:18.583Z,103196.09
2023-01-28T07:42:46.847Z,103196.75
2023-01-28T07:45:14.438Z,103196.47
2023-01-28T07:47:41.257Z,103202.47
2023-01-28T07:50:09.416Z,103201.53
2023-01-28T07:52:37.542Z,103210.25
2023-01-28T07:55:05.068Z,103217.28
2023-01-28T07:57:31.881Z,103231.06
2023-01-28T07:59:59.897Z,103229.22
2023-01-28T08:02:26.560Z,103237.06
2023-01-28T08:04:53.250Z,103244.25
2023-01-28T08:07:20.045Z,103239.09
2023-01-28T08:09:46.830Z,103237.38
2023-01-28T08:12:13.569Z,103248.69
2023-01-28T08:14:40.239Z,103240.91
2023-01-28T08:17:08.412Z,103245.31
2023-01-28T08:19:35.047Z,103254.91
2023-01-28T08:22:01.633Z,103249.69
2023-01-28T08:24:28.429Z,103249.81
2023-01-28T08:26:55.185Z,103246.38
2023-01-28T08:29:21.857Z,103228.88
2023-01-28T08:31:48.670Z,103253.44
2023-01-28T08:34:19.023Z,103249.16
2023-01-28T08:36:46.777Z,103247.47
2023-01-28T08:41:57.045Z,103260.72
2023-01-28T08:44:24.142Z,103259.91
2023-01-28T08:46:50.856Z,103260.81
2023-01-28T08:49:19.218Z,103254.78
2023-01-28T08:51:46.620Z,103271.44
2023-01-28T08:54:13.417Z,103276.84
2023-01-28T08:56:40.475Z,103271.72
2023-01-28T08:59:07.389Z,103272.66
2023-01-28T09:01:34.371Z,103263.09
2023-01-28T09:13:57.304Z,103290.56
2023-01-28T09:16:24.193Z,103288.88
2023-01-28T09:18:50.864Z,103278.41
2023-01-28T09:21:18.124Z,103281.03
2023-01-28T09:23:44.787Z,103281.00
2023-01-28T09:26:11.528Z,103281.03
2023-01-28T09:28:38.330Z,103282.78
2023-01-28T09:31:08.972Z,103289.78
2023-01-28T09:33:37.850Z,103293.31
2023-01-28T09:36:07.117Z,103291.56
2023-01-28T09:38:34.356Z,103288.03
2023-01-28T09:41:02.557Z,103283.59
2023-01-28T09:43:50.430Z,103280.06
2023-01-28T09:46:18.745Z,103301.00
2023-01-28T09:48:49.007Z,103302.66
2023-01-28T09:51:28.834Z,103289.34
2023-01-28T09:53:59.195Z,103280.25
2023-01-28T09:56:29.727Z,103291.72
2023-01-28T09:58:58.220Z,103284.03
2023-01-28T10:01:44.546Z,103283.97
2023-01-28T10:04:21.920Z,103284.16
2023-01-28T10:06:58.255Z,103276.19
2023-01-28T10:09:35.547Z,103261.56
2023-01-28T10:12:16.270Z,103263.56
2023-01-28T10:14:57.606Z,103263.47
2023-01-28T10:17:29.371Z,103266.84
2023-01-28T10:20:01.042Z,103251.38
2023-01-28T10:22:32.236Z,103233.44
2023-01-28T10:25:03.694Z,103242.09
2023-01-28T10:27:31.911Z,103235.72
2023-01-28T10:29:59.684Z,103226.09
2023-01-28T10:32:30.247Z,103218.19
2023-01-28T10:34:58.049Z,103214.94
2023-01-28T10:37:24.711Z,103199.53
2023-01-28T10:39:53.350Z,103193.06
2023-01-28T10:42:28.355Z,103188.31
2023-01-28T10:44:59.196Z,103194.94
2023-01-28T10:47:35.335Z,103174.06
2023-01-28T10:50:05.151Z,103160.81
2023-01-28T10:52:32.284Z,103164.06
2023-01-28T10:55:00.366Z,103158.97
2023-01-28T10:57:27.405Z,103171.09
2023-01-28T10:59:54.377Z,103169.03
2023-01-28T11:02:28.427Z,103156.69
2023-01-28T11:05:06.500Z,103160.34
2023-01-28T11:07:33.912Z,103161.47
2023-01-28T11:10:01.539Z,103164.31
2023-01-28T11:12:31.054Z,103158.72
2023-01-28T11:14:58.645Z,103167.56
2023-01-28T11:17:28.472Z,103171.00
2023-01-28T11:19:58.363Z,103184.63
2023-01-28T11:22:33.102Z,103192.25
2023-01-28T11:25:00.690Z,103197.66
2023-01-28T11:27:30.548Z,103196.13
2023-01-28T11:29:58.563Z,103206.03
2023-01-28T11:32:26.628Z,103210.41
2023-01-28T11:34:55.870Z,103211.78
2023-01-28T11:37:24.284Z,103219.19
2023-01-28T11:40:03.130Z,103224.09
2023-01-28T11:42:30.590Z,103219.28
2023-01-28T11:44:57.377Z,103221.28
2023-01-28T11:47:42.500Z,103213.91
2023-01-28T11:50:23.082Z,103204.13
2023-01-28T11:53:06.391Z,103195.50
2023-01-28T11:56:03.757Z,103186.34
2023-01-28T11:58:41.951Z,103185.53
2023-01-28T12:01:12.997Z,103179.38
2023-01-28T12:03:55.159Z,103172.53
2023-01-28T12:06:38.871Z,103166.06
2023-01-28T12:09:15.891Z,103155.31
2023-01-28T12:11:58.589Z,103151.69
2023-01-28T12:14:37.313Z,103142.13
2023-01-28T12:17:17.236Z,103136.88
2023-01-28T12:19:58.911Z,103130.50
2023-01-28T12:22:51.355Z,103128.16
2023-01-28T12:28:43.032Z,103121.88
2023-01-28T12:31:29.071Z,103131.03
2023-01-28T13:54:30.171Z,103092.97
2023-01-28T14:19:13.802Z,103120.31
2023-01-28T14:30:08.101Z,103120.41
2023-01-28T14:32:43.793Z,103116.06
2023-01-28T15:25:20.832Z,103135.38
2023-01-28T15:27:49.817Z,103133.72
2023-01-28T15:30:23.703Z,103132.00
2023-01-28T15:32:58.732Z,103151.47
2023-01-28T15:35:25.980Z,103160.22
2023-01-28T15:37:52.802Z,103144.38
2023-01-28T15:40:22.589Z,103142.63
2023-01-28T15:42:49.671Z,103133.84
2023-01-28T15:45:18.433Z,103121.59
2023-01-28T15:47:46.650Z,103139.16
2023-01-28T15:55:44.665Z,103147.31
2023-01-28T15:58:34.427Z,103148.31
2023-01-28T16:01:21.424Z,103131.69
2023-01-28T16:04:04.938Z,103135.22
2023-01-28T16:16:08.032Z,103132.75
2023-01-28T16:30:16.241Z,103121.59
2023-01-28T16:32:44.347Z,103129.53
2023-01-28T16:35:15.861Z,103126.91
2023-01-28T16:37:42.755Z,103129.50
2023-01-28T16:40:11.931Z,103122.50
2023-01-28T16:42:38.629Z,103120.81
2023-01-28T16:45:06.835Z,103112.03
2023-01-28T16:47:33.540Z,103119.03
2023-01-28T16:50:00.283Z,103120.00
2023-01-28T16:52:28.478Z,103122.63
2023-01-28T16:54:55.136Z,103117.34
2023-01-28T16:57:22.767Z,103126.09
2023-01-28T16:59:49.751Z,103124.34
2023-01-28T17:02:17.046Z,103126.97
2023-01-28T17:46:57.625Z,103160.41
2023-01-28T17:49:24.696Z,103165.66
2023-01-28T17:51:51.529Z,103163.03
2023-01-28T17:54:18.580Z,103170.97
2023-01-28T17:56:45.321Z,103170.94
2023-01-28T17:59:12.365Z,103172.69
2023-01-28T18:01:39.131Z,103174.44
2023-01-28T18:04:07.395Z,103168.25
2023-01-28T18:06:35.449Z,103176.16
2023-01-28T18:09:03.040Z,103163.88
2023-01-28T18:11:30.065Z,103172.63
2023-01-28T18:13:56.806Z,103180.53
2023-01-28T18:16:23.599Z,103176.97
2023-01-28T18:18:50.583Z,103166.41
2023-01-28T18:21:22.876Z,103166.31
2023-01-28T18:26:50.133Z,103177.72
2023-01-28T18:32:34.997Z,103169.88
2023-01-28T18:49:46.509Z,103176.06
2023-01-28T18:55:16.191Z,103184.91
2023-01-28T18:57:43.427Z,103183.13
2023-01-28T19:03:23.842Z,103176.97
2023-01-28T19:05:55.555Z,103184.88
2023-01-28T19:08:26.623Z,103182.31
2023-01-28T19:13:38.037Z,103173.50
2023-01-28T19:16:11.218Z,103170.88
2023-01-28T19:18:39.070Z,103172.66
2023-01-28T19:21:07.210Z,103170.91
2023-01-28T19:23:49.232Z,103153.44
2023-01-28T19:26:16.862Z,103170.03
2023-01-28T19:28:45.168Z,103162.16
2023-01-28T19:31:13.412Z,103160.41
2023-01-28T19:33:40.083Z,103147.19
2023-01-28T19:36:07.133Z,103148.94
2023-01-28T19:38:33.742Z,103145.38
2023-01-28T19:41:03.304Z,103138.38
2023-01-28T19:43:30.254Z,103148.88
2023-01-28T19:45:57.145Z,103149.72
2023-01-28T19:48:25.418Z,103150.59
2023-01-28T19:50:52.248Z,103149.75
2023-01-28T19:53:19.236Z,103145.38
2023-01-28T19:55:46.205Z,103149.75
2023-01-28T19:58:13.444Z,103150.63
2023-01-28T20:00:40.845Z,103148.91
2023-01-28T20:03:07.789Z,103148.00
2023-01-28T20:05:36.050Z,103138.38
2023-01-28T20:08:03.546Z,103142.78
2023-01-28T20:10:30.737Z,103144.53
2023-01-28T20:12:57.535Z,103137.53
2023-01-28T20:15:24.175Z,103138.41
2023-01-28T20:17:50.789Z,103143.72
2023-01-28T20:20:17.924Z,103142.81
2023-01-28T20:22:45.895Z,103150.72
2023-01-28T20:25:12.629Z,103148.97
2023-01-28T20:27:39.491Z,103143.72
2023-01-28T20:30:07.411Z,103143.72
2023-01-28T20:32:34.205Z,103141.06
2023-01-28T20:35:00.987Z,103134.88
2023-01-28T20:37:27.763Z,103134.84
2023-01-28T20:39:55.875Z,103130.38
2023-01-28T20:42:22.650Z,103131.22
2023-01-28T20:44:49.512Z,103130.34
2023-01-28T20:47:16.206Z,103132.16
2023-01-28T20:49:43.123Z,103125.97
2023-01-28T20:52:09.966Z,103125.97
2023-01-28T20:54:36.820Z,103130.34
2023-01-28T20:57:05.050Z,103133.88
2023-01-28T20:59:31.763Z,103129.47
2023-01-28T21:01:58.700Z,103134.78
2023-01-28T21:04:25.466Z,103136.53
2023-01-28T21:06:52.235Z,103132.16
2023-01-28T21:09:19.112Z,103132.16
2023-01-28T21:11:45.773Z,103139.22
2023-01-28T21:14:13.869Z,103140.91
2023-01-28T21:16:40.757Z,103139.22
2023-01-28T21:19:07.461Z,103141.88
2023-01-28T21:21:34.288Z,103144.53
2023-01-28T21:24:01.711Z,103141.03
2023-01-28T21:26:28.890Z,103143.63
2023-01-28T21:28:55.612Z,103139.19
2023-01-28T21:31:25.963Z,103140.09
2023-01-28T21:33:54.291Z,103149.78
2023-01-28T21:36:22.502Z,103148.03
2023-01-28T21:38:52.802Z,103147.16
2023-01-28T21:41:19.679Z,103141.00
2023-01-28T21:43:48.926Z,103136.63
2023-01-28T21:46:15.799Z,103130.47
2023-01-28T21:48:45.720Z,103137.47
2023-01-28T21:51:12.856Z,103134.84
2023-01-28T21:53:41.064Z,103134.84
2023-01-28T21:56:09.426Z,103120.78
2023-01-28T21:58:37.440Z,103122.50
2023-01-28T22:01:09.592Z,103113.72
2023-01-28T22:03:36.287Z,103108.44
2023-01-28T22:06:04.698Z,103102.28
2023-01-28T22:08:31.357Z,103104.88
2023-01-28T22:11:01.982Z,103099.63
2023-01-28T22:13:29.536Z,103094.38
2023-01-28T22:15:56.259Z,103092.63
2023-01-28T22:18:23.226Z,103086.41
2023-01-28T22:20:56.828Z,103083.75
2023-01-28T22:23:25.186Z,103082.81
2023-01-28T22:25:52.085Z,103094.25
2023-01-28T22:28:19.036Z,103088.09
2023-01-28T22:30:46.108Z,103093.38
2023-01-28T22:33:13.305Z,103077.56
2023-01-28T22:35:40.233Z,103087.22
2023-01-28T22:38:08.555Z,103081.94
2023-01-28T22:40:37.007Z,103081.91
2023-01-28T22:43:04.416Z,103075.81
2023-01-28T22:45:31.242Z,103081.09
2023-01-28T22:47:58.208Z,103070.56
2023-01-28T22:50:25.010Z,103067.94
2023-01-28T22:52:51.763Z,103076.75
2023-01-28T22:55:18.631Z,103075.00
2023-01-28T22:57:46.749Z,103074.06
2023-01-28T23:00:15.941Z,103075.81
2023-01-28T23:02:43.155Z,103067.03
2023-01-28T23:05:10.407Z,103076.63
2023-01-28T23:07:37.432Z,103068.72
2023-01-28T23:10:05.374Z,103066.88
2023-01-28T23:12:32.233Z,103065.16
2023-01-28T23:15:00.499Z,103059.97
2023-01-28T23:17:27.288Z,103064.34
2023-01-28T23:19:55.544Z,103062.59
2023-01-28T23:22:25.085Z,103059.06
2023-01-28T23:24:51.879Z,103057.31
2023-01-28T23:27:18.903Z,103052.00
2023-01-28T23:29:45.844Z,103045.03
2023-01-28T23:32:14.247Z,103037.19
2023-01-28T23:34:43.071Z,103041.50
2023-01-28T23:37:11.274Z,103025.69
2023-01-28T23:39:38.327Z,103039.75
2023-01-28T23:42:14.105Z,103021.31
2023-01-28T23:44:40.779Z,103028.38
2023-01-28T23:47:08.079Z,103044.19
2023-01-28T23:49:36.594Z,103037.16
2023-01-28T23:52:04.114Z,103041.53
2023-01-28T23:54:30.837Z,103041.50
2023-01-28T23:56:57.847Z,103046.81
2023-01-28T23:59:24.718Z,103051.19
